Time;durP1;ratioP1;P1;durP2;ratioP2;P2;SDS_P1;SDS_P2;PMS_P1;PMS_P2;Temp;Humidity;BMP_temperature;BMP_pressure;BME280_temperature;BME280_humidity;BME280_pressure;Samples;Min_cycle;Max_cycle;Signal;HPM_P1;HPM_P2
2022/10/12 00:00:55;;;;;;;2.17;1.50;;;;;;;9.09;82.95;102574.50;5056994;28;20033;-86
2022/10/12 00:03:21;;;;;;;2.17;1.40;;;;;;;9.08;83.27;102573.66;5025551;28;20035;-86
2022/10/12 00:05:50;;;;;;;1.52;1.20;;;;;;;9.08;83.03;102573.66;5042840;28;20078;-86
2022/10/12 00:08:15;;;;;;;1.95;1.17;;;;;;;9.07;83.32;102574.53;5058431;28;20020;-86
2022/10/12 00:10:42;;;;;;;1.92;1.10;;;;;;;9.06;83.17;102582.38;5042271;28;20096;-86
2022/10/12 00:13:11;;;;;;;1.70;1.13;;;;;;;9.05;83.44;102576.28;5056500;28;20061;-86
2022/10/12 00:15:38;;;;;;;1.77;1.40;;;;;;;9.03;83.41;102578.91;5042455;28;20689;-86
2022/10/12 00:18:03;;;;;;;2.13;0.98;;;;;;;9.02;83.35;102579.78;5076793;28;20040;-86
2022/10/12 00:20:29;;;;;;;0.75;0.65;;;;;;;9.01;82.93;102571.97;5058616;28;20277;-85
2022/10/12 00:22:54;;;;;;;1.60;1.20;;;;;;;9.00;83.00;102568.50;5058619;28;20071;-86
2022/10/12 00:25:20;;;;;;;3.45;1.20;;;;;;;8.99;83.28;102577.19;5041788;28;20048;-86
2022/10/12 00:27:45;;;;;;;1.45;1.00;;;;;;;8.99;83.27;102577.19;5041989;28;20032;-86
2022/10/12 00:30:11;;;;;;;1.90;0.98;;;;;;;8.97;83.31;102573.72;5059152;28;20452;-86
2022/10/12 00:32:36;;;;;;;1.17;1.05;;;;;;;8.96;83.09;102574.59;5076109;28;20048;-86
2022/10/12 00:35:02;;;;;;;1.10;1.00;;;;;;;8.95;83.25;102571.97;5062509;28;20170;-86
2022/10/12 00:37:28;;;;;;;2.13;1.27;;;;;;;8.94;83.18;102580.72;5061624;28;20071;-86
2022/10/12 00:39:53;;;;;;;2.42;1.20;;;;;;;8.92;83.24;102578.09;5062319;28;20035;-86
2022/10/12 00:42:19;;;;;;;1.85;1.15;;;;;;;8.91;83.08;102573.75;5061599;28;20032;-86
2022/10/12 00:44:47;;;;;;;2.00;1.23;;;;;;;8.90;83.19;102568.56;5045491;28;20215;-86
2022/10/12 00:47:27;;;;;;;1.42;1.10;;;;;;;8.88;83.17;102565.06;5044650;28;20028;-86
2022/10/12 00:50:07;;;;;;;4.82;1.50;;;;;;;8.86;83.07;102561.59;5080162;28;20251;-86
2022/10/12 00:52:43;;;;;;;1.08;0.98;;;;;;;8.85;82.90;102573.78;5079315;28;20090;-86
2022/10/12 00:55:13;;;;;;;1.98;1.23;;;;;;;8.82;83.04;102572.06;5061979;28;20333;-86
2022/10/12 00:57:38;;;;;;;1.83;1.23;;;;;;;8.80;83.00;102563.38;5079776;28;20247;-86
2022/10/12 01:00:07;;;;;;;1.90;1.02;;;;;;;8.80;83.00;102563.38;5079793;28;20032;-86
2022/10/12 01:02:35;;;;;;;1.95;1.50;;;;;;;8.78;83.05;102566.84;5079496;28;20039;-86
2022/10/12 01:05:01;;;;;;;1.63;1.50;;;;;;;8.76;82.94;102561.63;5062141;28;20024;-86
2022/10/12 01:07:27;;;;;;;2.25;1.17;;;;;;;8.76;83.14;102560.78;5061396;28;20232;-86
2022/10/12 01:09:52;;;;;;;1.30;1.20;;;;;;;8.74;82.93;102560.78;5061890;28;20048;-86
2022/10/12 01:12:19;;;;;;;1.83;1.33;;;;;;;8.73;83.10;102558.19;5061026;28;20035;-86
2022/10/12 01:14:44;;;;;;;3.97;1.33;;;;;;;8.72;83.04;102556.47;5061852;28;20100;-86
2022/10/12 01:17:44;;;;;;;2.03;1.33;;;;;;;8.69;83.15;102554.72;5079386;28;20016;-86
2022/10/12 01:20:19;;;;;;;2.97;1.50;;;;;;;8.68;82.94;102553.00;5049059;28;20048;-86
2022/10/12 01:23:04;;;;;;;3.63;1.58;;;;;;;8.67;83.18;102550.38;5079361;28;20017;-86
2022/10/12 01:26:07;;;;;;;1.40;1.30;;;;;;;8.64;83.12;102549.53;5061011;28;20052;-86
2022/10/12 01:28:41;;;;;;;1.50;1.40;;;;;;;8.63;83.09;102542.56;5078834;28;20039;-86
2022/10/12 01:31:46;;;;;;;2.05;1.55;;;;;;;8.62;82.98;102542.56;5079610;28;20314;-86
2022/10/12 01:34:21;;;;;;;1.90;1.45;;;;;;;8.60;83.10;102542.59;5060987;28;20300;-86
2022/10/12 01:36:57;;;;;;;1.30;1.20;;;;;;;8.59;82.90;102547.81;5061576;28;20457;-86
2022/10/12 01:39:42;;;;;;;1.65;1.52;;;;;;;8.56;82.90;102540.84;5060229;28;20071;-86
2022/10/12 01:42:14;;;;;;;2.28;1.40;;;;;;;8.55;83.09;102541.75;5061246;28;20051;-86
2022/10/12 01:44:40;;;;;;;1.63;1.52;;;;;;;8.53;83.22;102538.28;5060234;28;20219;-86
2022/10/12 01:47:05;;;;;;;1.60;1.20;;;;;;;8.53;83.26;102542.59;5060989;28;20032;-86
2022/10/12 01:49:33;;;;;;;4.50;1.65;;;;;;;8.52;83.06;102527.84;5060636;28;20036;-86
2022/10/12 01:52:26;;;;;;;2.22;1.40;;;;;;;8.50;83.19;102530.44;5078890;28;20028;-86
2022/10/12 01:55:18;;;;;;;1.45;1.35;;;;;;;8.48;83.21;102526.97;5060918;28;20040;-86
2022/10/12 01:57:53;;;;;;;2.30;1.73;;;;;;;8.47;83.01;102522.63;5060779;28;20071;-86
2022/10/12 02:00:19;;;;;;;2.00;1.60;;;;;;;8.44;83.07;102515.69;5058292;28;20029;-86
2022/10/12 02:03:15;;;;;;;1.90;1.50;;;;;;;8.43;83.23;102527.00;5041241;28;20032;-86
2022/10/12 02:05:47;;;;;;;1.60;1.50;;;;;;;8.41;83.21;102515.66;5047561;28;20025;-86
2022/10/12 02:08:23;;;;;;;2.10;1.45;;;;;;;8.41;83.03;102520.03;5078212;28;20059;-86
2022/10/12 02:11:00;;;;;;;1.30;1.20;;;;;;;8.40;83.15;102518.28;5046328;28;20043;-86
2022/10/12 02:13:31;;;;;;;2.38;1.63;;;;;;;8.37;82.83;102513.94;5043800;28;20051;-86
2022/10/12 02:16:00;;;;;;;1.90;1.35;;;;;;;8.35;83.08;102512.19;5060875;28;20208;-86
2022/10/12 02:18:27;;;;;;;1.58;1.30;;;;;;;8.36;83.16;102511.34;5078444;28;20046;-86
2022/10/12 02:20:55;;;;;;;1.98;1.42;;;;;;;8.33;83.17;102508.72;5060571;28;20028;-86
2022/10/12 02:23:23;;;;;;;4.53;1.77;;;;;;;8.33;83.24;102506.13;5060617;28;20348;-85
2022/10/12 02:25:52;;;;;;;1.85;1.58;;;;;;;8.31;83.60;102506.13;5089343;28;20044;-86
2022/10/12 02:28:21;;;;;;;2.10;1.50;;;;;;;8.30;83.46;102504.41;5079746;28;20085;-86
2022/10/12 02:31:15;;;;;;;2.78;1.60;;;;;;;8.28;83.28;102500.94;5078334;28;20029;-86
2022/10/12 02:33:59;;;;;;;1.52;1.40;;;;;;;8.26;83.73;102494.84;5081133;28;20099;-84
2022/10/12 02:36:40;;;;;;;1.63;1.50;;;;;;;8.24;83.43;102492.25;5097419;28;20032;-84
2022/10/12 02:39:15;;;;;;;1.80;1.70;;;;;;;8.23;83.61;102498.34;5093871;28;20046;-84
2022/10/12 02:41:46;;;;;;;2.72;1.90;;;;;;;8.22;83.79;102495.72;5077138;28;20078;-84
2022/10/12 02:44:16;;;;;;;1.75;1.65;;;;;;;8.21;83.62;102488.78;5083736;28;20032;-84
2022/10/12 02:46:43;;;;;;;2.13;1.50;;;;;;;8.21;83.65;102488.78;5096371;28;20019;-84
2022/10/12 02:49:10;;;;;;;2.45;2.08;;;;;;;8.19;83.76;102486.19;5062395;28;20055;-84
2022/10/12 02:51:37;;;;;;;1.98;1.77;;;;;;;8.17;84.03;102480.09;5062256;28;20034;-84
2022/10/12 02:54:03;;;;;;;2.78;2.17;;;;;;;8.16;83.83;102486.19;5079369;28;20032;-84
2022/10/12 02:56:28;;;;;;;3.10;1.75;;;;;;;8.16;84.00;102482.72;5077887;28;20113;-84
2022/10/12 02:58:54;;;;;;;2.13;2.03;;;;;;;8.14;84.08;102477.50;5097189;28;20107;-84
2022/10/12 03:01:20;;;;;;;1.95;1.83;;;;;;;8.12;83.98;102475.78;5062187;28;20032;-84
2022/10/12 03:03:45;;;;;;;2.42;1.95;;;;;;;8.12;84.16;102474.03;5062684;28;20377;-84
2022/10/12 03:06:11;;;;;;;2.83;2.60;;;;;;;8.11;83.88;102471.41;5096513;28;20107;-84
2022/10/12 03:08:36;;;;;;;2.80;2.60;;;;;;;8.10;84.14;102475.78;5062244;28;20303;-84
2022/10/12 03:11:04;;;;;;;3.03;2.63;;;;;;;8.09;84.42;102468.81;5078448;28;20070;-84
2022/10/12 03:13:29;;;;;;;3.50;2.53;;;;;;;8.08;84.54;102469.69;5078145;28;20378;-84
2022/10/12 03:16:05;;;;;;;2.88;2.65;;;;;;;8.07;84.94;102470.56;5079109;28;20044;-84
2022/10/12 03:18:31;;;;;;;3.30;2.65;;;;;;;8.08;84.75;102485.38;5095537;28;20038;-84
2022/10/12 03:20:56;;;;;;;2.40;2.20;;;;;;;8.06;84.73;102479.28;5095643;28;20095;-84
2022/10/12 03:23:22;;;;;;;2.65;2.45;;;;;;;8.06;84.95;102476.69;5096558;28;20380;-84
2022/10/12 03:25:48;;;;;;;2.63;2.42;;;;;;;8.04;84.92;102468.84;5067555;28;20041;-84
2022/10/12 03:28:13;;;;;;;2.50;2.30;;;;;;;8.04;84.99;102470.56;5058531;28;20096;-84
2022/10/12 03:30:39;;;;;;;2.90;2.60;;;;;;;8.02;84.94;102468.00;5076338;28;20036;-84
2022/10/12 03:33:04;;;;;;;2.88;2.63;;;;;;;8.02;85.12;102472.31;5058758;28;20270;-84
2022/10/12 03:35:29;;;;;;;2.80;2.60;;;;;;;8.01;85.32;102479.28;5075814;28;20123;-84
2022/10/12 03:37:55;;;;;;;2.25;2.13;;;;;;;8.00;85.24;102476.69;5076699;28;20028;-84
2022/10/12 03:40:20;;;;;;;3.03;2.83;;;;;;;7.99;85.40;102470.59;5057361;28;20351;-84
2022/10/12 03:42:46;;;;;;;2.72;2.53;;;;;;;7.99;85.40;102477.56;5076462;28;20071;-84
2022/10/12 03:45:11;;;;;;;2.92;2.72;;;;;;;7.97;85.63;102469.75;5076315;28;20090;-84
2022/10/12 03:47:37;;;;;;;2.63;2.42;;;;;;;7.98;85.37;102475.81;5076410;28;20036;-84
2022/10/12 03:50:03;;;;;;;2.70;2.30;;;;;;;7.95;85.47;102471.50;5058612;28;20335;-84
2022/10/12 03:52:28;;;;;;;3.67;2.72;;;;;;;7.96;85.45;102478.44;5058120;28;20089;-84
2022/10/12 03:54:53;;;;;;;2.50;2.40;;;;;;;7.96;85.66;102481.03;5041540;28;20327;-84
2022/10/12 03:57:19;;;;;;;2.42;2.30;;;;;;;7.94;85.64;102477.56;5058006;28;20058;-84
2022/10/12 03:59:44;;;;;;;2.88;2.53;;;;;;;7.94;85.66;102479.31;5058246;28;20043;-84
2022/10/12 04:02:10;;;;;;;2.50;2.30;;;;;;;7.93;85.68;102478.47;5058410;28;20037;-84
2022/10/12 04:04:35;;;;;;;2.80;2.60;;;;;;;7.93;85.66;102478.47;5041602;28;20031;-84
2022/10/12 04:07:01;;;;;;;2.83;2.42;;;;;;;7.93;85.68;102480.19;5076198;28;20040;-84
2022/10/12 04:09:26;;;;;;;3.15;2.83;;;;;;;7.91;85.96;102477.56;5060100;28;20211;-84
2022/10/12 04:11:52;;;;;;;2.83;2.50;;;;;;;7.91;85.97;102472.34;5062079;28;20279;-84
2022/10/12 04:14:17;;;;;;;3.25;2.95;;;;;;;7.90;86.02;102472.38;5061727;28;20210;-84
2022/10/12 04:16:42;;;;;;;2.55;2.33;;;;;;;7.90;85.98;102473.25;5079746;28;20063;-84
2022/10/12 04:19:11;;;;;;;3.58;2.80;;;;;;;7.89;86.09;102476.72;5061981;28;20071;-84
2022/10/12 04:21:36;;;;;;;3.60;3.33;;;;;;;7.87;86.18;102473.25;5051514;28;20357;-84
2022/10/12 04:24:02;;;;;;;3.10;2.90;;;;;;;7.87;86.22;102473.25;5060289;28;20021;-84
2022/10/12 04:26:27;;;;;;;2.83;2.63;;;;;;;7.86;86.36;102471.53;5037458;28;20052;-84
2022/10/12 04:28:53;;;;;;;3.08;2.88;;;;;;;7.85;86.40;102472.38;5075265;28;20251;-84
2022/10/12 04:31:18;;;;;;;3.78;3.03;;;;;;;7.84;86.35;102465.41;5061305;28;20304;-84
2022/10/12 04:33:44;;;;;;;4.60;3.35;;;;;;;7.82;86.12;102464.56;5045246;28;20035;-84
2022/10/12 04:36:09;;;;;;;3.67;2.80;;;;;;;7.83;86.30;102466.31;5061573;28;20322;-84
2022/10/12 04:38:35;;;;;;;3.17;2.95;;;;;;;7.83;86.25;102468.91;5044787;28;20035;-84
2022/10/12 04:41:00;;;;;;;2.78;2.58;;;;;;;7.82;86.34;102460.25;5079379;28;20044;-84
2022/10/12 04:43:26;;;;;;;3.10;2.90;;;;;;;7.82;86.35;102457.63;5079345;28;20036;-84
2022/10/12 04:45:58;;;;;;;2.70;2.50;;;;;;;7.81;86.35;102457.63;5045188;28;20047;-84
2022/10/12 04:48:25;;;;;;;3.08;2.83;;;;;;;7.81;86.26;102457.63;5060884;28;20024;-84
2022/10/12 04:50:51;;;;;;;2.80;2.47;;;;;;;7.80;86.24;102445.44;5079261;28;20246;-84
2022/10/12 04:53:17;;;;;;;3.20;2.90;;;;;;;7.79;86.21;102447.19;5078914;28;20024;-84
2022/10/12 04:55:42;;;;;;;3.00;2.80;;;;;;;7.79;86.34;102444.59;5061397;28;20099;-84
2022/10/12 04:58:08;;;;;;;3.30;2.95;;;;;;;7.79;86.33;102446.34;5079234;28;20185;-84
2022/10/12 05:00:33;;;;;;;4.00;3.65;;;;;;;7.79;86.37;102447.19;5060810;28;20032;-84
2022/10/12 05:02:59;;;;;;;3.40;3.10;;;;;;;7.78;86.44;102445.44;5061295;28;20035;-86
2022/10/12 05:05:24;;;;;;;2.90;2.70;;;;;;;7.78;86.58;102440.22;5027700;28;20040;-84
2022/10/12 05:07:50;;;;;;;5.25;3.80;;;;;;;7.78;86.65;102445.44;5078881;28;20028;-83
2022/10/12 05:10:16;;;;;;;3.25;2.95;;;;;;;7.79;86.72;102438.50;5066022;28;20036;-84
2022/10/12 05:12:42;;;;;;;3.13;2.83;;;;;;;7.78;86.76;102441.97;5058106;28;20066;-84
2022/10/12 05:15:08;;;;;;;3.03;2.70;;;;;;;7.78;86.76;102439.38;5061108;28;20327;-85
2022/10/12 05:17:34;;;;;;;3.45;3.15;;;;;;;7.79;86.71;102436.75;5043331;28;20343;-84
2022/10/12 05:19:59;;;;;;;3.55;3.00;;;;;;;7.78;86.61;102437.63;5078526;28;20037;-85
2022/10/12 05:22:24;;;;;;;3.55;3.25;;;;;;;7.78;86.45;102431.53;5078151;28;20342;-84
2022/10/12 05:24:50;;;;;;;2.97;2.78;;;;;;;7.77;86.94;102435.06;5043860;28;20111;-85
2022/10/12 05:27:15;;;;;;;3.60;2.90;;;;;;;7.77;86.70;102437.66;5078430;28;20028;-84
2022/10/12 05:29:41;;;;;;;2.70;2.50;;;;;;;7.76;86.66;102441.97;5059634;28;20025;-84
2022/10/12 05:32:06;;;;;;;3.40;3.10;;;;;;;7.76;86.89;102447.19;5059537;28;20108;-84
2022/10/12 05:34:31;;;;;;;3.10;2.80;;;;;;;7.76;86.71;102446.34;5045079;28;20251;-84
2022/10/12 05:36:57;;;;;;;2.90;2.70;;;;;;;7.74;86.83;102446.34;5043775;28;20048;-84
2022/10/12 05:39:23;;;;;;;3.38;3.08;;;;;;;7.73;86.68;102442.00;5059359;28;20059;-85
2022/10/12 05:41:48;;;;;;;2.72;2.53;;;;;;;7.73;86.71;102439.41;5025014;28;20192;-85
2022/10/12 05:44:14;;;;;;;2.83;2.63;;;;;;;7.74;86.92;102445.47;5043850;28;20036;-85
2022/10/12 05:46:39;;;;;;;3.05;2.83;;;;;;;7.73;86.80;102433.31;5059451;28;20492;-84
2022/10/12 05:49:05;;;;;;;3.47;3.05;;;;;;;7.73;87.04;102430.69;5060681;28;20048;-84
2022/10/12 05:51:31;;;;;;;3.90;3.13;;;;;;;7.72;86.82;102432.44;5059826;28;20224;-83
2022/10/12 05:53:56;;;;;;;3.20;2.95;;;;;;;7.72;86.96;102437.66;5060392;28;20074;-85
2022/10/12 05:56:21;;;;;;;3.17;2.88;;;;;;;7.71;87.08;102435.06;5025008;28;20106;-85
2022/10/12 05:58:47;;;;;;;3.38;3.08;;;;;;;7.71;86.97;102440.25;5058092;28;20357;-85
2022/10/12 06:01:13;;;;;;;2.88;2.53;;;;;;;7.69;87.04;102433.34;5063332;28;20239;-85
2022/10/12 06:03:39;;;;;;;3.05;2.85;;;;;;;7.68;87.15;102431.59;5039254;28;20044;-85
2022/10/12 06:06:05;;;;;;;3.67;2.90;;;;;;;7.68;86.93;102430.72;5076608;28;20551;-85
2022/10/12 06:08:32;;;;;;;3.83;3.00;;;;;;;7.68;87.17;102435.94;5054344;28;20637;-85
2022/10/12 06:10:57;;;;;;;3.42;2.90;;;;;;;7.67;87.36;102432.44;5057745;28;20029;-85
2022/10/12 06:13:24;;;;;;;3.65;3.30;;;;;;;7.68;87.27;102433.34;5052372;28;20365;-85
2022/10/12 06:15:49;;;;;;;3.70;3.40;;;;;;;7.67;87.21;102426.38;5058405;28;20033;-85
2022/10/12 06:18:16;;;;;;;3.40;3.10;;;;;;;7.67;87.39;102435.03;5041181;28;20090;-85
2022/10/12 06:20:53;;;;;;;4.03;3.67;;;;;;;7.67;87.47;102436.78;5057841;28;20036;-85
2022/10/12 06:23:19;;;;;;;4.88;3.50;;;;;;;7.66;87.61;102428.13;5068956;28;20418;-85
2022/10/12 06:25:46;;;;;;;3.85;3.55;;;;;;;7.66;87.45;102427.25;5059935;28;20052;-85
2022/10/12 06:28:13;;;;;;;4.55;3.42;;;;;;;7.65;87.58;102426.38;5090369;28;20098;-85
2022/10/12 06:30:39;;;;;;;4.32;3.45;;;;;;;7.66;87.45;102429.88;5074737;28;20028;-85
2022/10/12 06:33:04;;;;;;;3.78;3.47;;;;;;;7.66;87.78;102424.66;5073867;28;20104;-86
2022/10/12 06:35:30;;;;;;;3.58;3.28;;;;;;;7.66;87.63;102432.47;5091862;28;20403;-85
2022/10/12 06:37:56;;;;;;;3.95;3.65;;;;;;;7.66;87.77;102427.25;5077475;28;20051;-85
2022/10/12 06:40:21;;;;;;;5.20;3.50;;;;;;;7.65;87.96;102421.16;5064653;28;20055;-85
2022/10/12 06:42:50;;;;;;;3.58;3.10;;;;;;;7.66;87.85;102422.03;5059017;28;20110;-86
2022/10/12 06:45:16;;;;;;;3.65;3.35;;;;;;;7.66;87.95;102424.66;5084763;28;20039;-85
2022/10/12 06:47:41;;;;;;;5.03;3.42;;;;;;;7.66;88.19;102425.50;5059166;28;20024;-85
2022/10/12 06:50:08;;;;;;;4.05;3.75;;;;;;;7.67;88.19;102423.75;5083146;28;20039;-85
2022/10/12 06:52:33;;;;;;;3.67;3.28;;;;;;;7.68;88.25;102422.91;5071359;28;20039;-85
2022/10/12 06:54:59;;;;;;;5.50;3.80;;;;;;;7.67;88.28;102424.63;5087087;28;20055;-86
2022/10/12 06:57:24;;;;;;;7.65;3.97;;;;;;;7.68;88.52;102428.13;5086259;28;20217;-85
2022/10/12 06:59:50;;;;;;;4.28;3.60;;;;;;;7.69;88.48;102427.22;5062188;28;20032;-86
2022/10/12 07:02:15;;;;;;;4.25;3.85;;;;;;;7.70;88.58;102431.59;5039318;28;20067;-85
2022/10/12 07:04:41;;;;;;;3.63;3.33;;;;;;;7.69;88.43;102433.34;5066069;28;20028;-86
2022/10/12 07:07:06;;;;;;;3.70;3.40;;;;;;;7.71;88.53;102424.63;5075013;28;20044;-86
2022/10/12 07:09:31;;;;;;;3.55;3.25;;;;;;;7.71;88.71;102424.63;5065310;28;20032;-85
2022/10/12 07:11:57;;;;;;;4.00;3.60;;;;;;;7.72;88.78;102432.44;5072124;28;20031;-85
2022/10/12 07:14:22;;;;;;;3.72;3.40;;;;;;;7.71;88.86;102428.09;5059808;28;20367;-85
2022/10/12 07:16:48;;;;;;;4.35;3.95;;;;;;;7.71;88.92;102422.88;5074864;28;20347;-85
2022/10/12 07:19:13;;;;;;;4.75;4.20;;;;;;;7.72;89.09;102429.84;5093022;28;20335;-85
2022/10/12 07:21:39;;;;;;;5.38;4.25;;;;;;;7.72;89.23;102427.22;5066802;28;20047;-86
2022/10/12 07:24:04;;;;;;;5.00;4.60;;;;;;;7.73;89.40;102428.97;5072418;28;20343;-86
2022/10/12 07:26:30;;;;;;;4.95;4.45;;;;;;;7.72;89.51;102429.84;5075884;28;20051;-85
2022/10/12 07:28:56;;;;;;;5.13;4.30;;;;;;;7.72;89.64;102429.84;5073837;28;20088;-85
2022/10/12 07:31:21;;;;;;;5.68;4.53;;;;;;;7.73;89.75;102428.09;5069309;28;20037;-85
2022/10/12 07:33:46;;;;;;;6.53;4.68;;;;;;;7.72;89.79;102422.00;5067374;28;20398;-85
2022/10/12 07:36:12;;;;;;;4.93;4.50;;;;;;;7.73;89.68;102426.38;5087871;28;20036;-86
2022/10/12 07:38:37;;;;;;;6.38;5.72;;;;;;;7.74;89.86;102430.69;5055747;28;20074;-85
2022/10/12 07:41:03;;;;;;;5.95;5.22;;;;;;;7.75;90.09;102428.94;5064890;28;20031;-86
2022/10/12 07:43:30;;;;;;;4.55;4.15;;;;;;;7.75;90.27;102424.63;5075590;28;20043;-86
2022/10/12 07:45:56;;;;;;;7.93;5.35;;;;;;;7.75;90.30;102415.91;5094889;28;20051;-86
2022/10/12 07:48:22;;;;;;;7.85;6.25;;;;;;;7.77;90.53;102419.41;5072698;28;20027;-86
2022/10/12 07:50:48;;;;;;;10.20;7.13;;;;;;;7.77;90.72;102420.25;5094749;28;20242;-86
2022/10/12 07:53:14;;;;;;;9.35;6.80;;;;;;;7.78;90.65;102416.75;5054325;28;20379;-86
2022/10/12 07:55:39;;;;;;;10.82;6.70;;;;;;;7.80;90.94;102427.19;5090547;28;20092;-86
2022/10/12 07:58:05;;;;;;;6.82;6.10;;;;;;;7.81;90.99;102429.78;5087476;28;20036;-86
2022/10/12 08:00:31;;;;;;;7.38;6.65;;;;;;;7.83;91.07;102435.00;5069587;28;20410;-86
2022/10/12 08:02:57;;;;;;;7.90;6.30;;;;;;;7.84;91.25;102431.50;5072558;28;20082;-86
2022/10/12 08:05:24;;;;;;;8.65;6.45;;;;;;;7.85;91.33;102435.88;5077004;28;20089;-86
2022/10/12 08:07:50;;;;;;;7.72;6.88;;;;;;;7.87;91.42;102439.34;5070439;28;20028;-86
2022/10/12 08:10:16;;;;;;;8.23;6.57;;;;;;;7.89;91.41;102445.41;5069970;28;20284;-86
2022/10/12 08:12:43;;;;;;;7.97;6.95;;;;;;;7.91;91.36;102455.84;5088193;28;20032;-85
2022/10/12 08:15:09;;;;;;;8.80;7.18;;;;;;;7.92;91.56;102449.78;5060781;28;20375;-86
2022/10/12 08:17:34;;;;;;;8.35;6.75;;;;;;;7.94;91.69;102446.25;5060126;28;20055;-85
2022/10/12 08:19:59;;;;;;;10.05;7.38;;;;;;;7.95;91.77;102447.13;5079970;28;20035;-85
2022/10/12 08:22:25;;;;;;;11.50;7.55;;;;;;;7.96;92.05;102436.69;5077417;28;20040;-86
2022/10/12 08:24:50;;;;;;;11.32;8.30;;;;;;;7.98;92.20;102441.91;5077303;28;20052;-86
2022/10/12 08:27:16;;;;;;;8.48;7.03;;;;;;;7.99;92.31;102431.47;5056104;28;20047;-85
2022/10/12 08:29:41;;;;;;;7.32;6.63;;;;;;;8.02;92.01;102433.19;5057978;28;20033;-85
2022/10/12 08:32:06;;;;;;;9.20;8.07;;;;;;;8.03;92.17;102437.53;5068060;28;20036;-86
2022/10/12 08:34:32;;;;;;;10.43;8.63;;;;;;;8.04;92.25;102437.53;5072141;28;20450;-85
2022/10/12 08:36:58;;;;;;;9.32;7.70;;;;;;;8.06;92.36;102443.63;5074246;28;20324;-86
2022/10/12 08:39:24;;;;;;;13.00;8.85;;;;;;;8.08;92.55;102441.84;5073704;28;20028;-85
2022/10/12 08:42:39;;;;;;;13.57;8.52;;;;;;;8.10;92.77;102447.06;5077366;28;20028;-85
2022/10/12 08:45:26;;;;;;;11.57;8.45;;;;;;;8.13;92.92;102443.56;5024443;28;20035;-85
2022/10/12 08:47:57;;;;;;;14.80;9.27;;;;;;;8.14;93.07;102446.19;5057432;28;20100;-86
2022/10/12 08:50:39;;;;;;;15.25;9.52;;;;;;;8.16;93.18;102431.38;5079351;28;20036;-85
2022/10/12 08:53:14;;;;;;;21.52;11.13;;;;;;;8.20;93.34;102432.22;5072524;28;20059;-86
2022/10/12 08:55:43;;;;;;;12.68;8.57;;;;;;;8.21;93.43;102419.19;5066482;28;20079;-86
2022/10/12 08:58:15;;;;;;;14.35;9.93;;;;;;;8.24;93.54;102410.44;5075782;28;20354;-86
2022/10/12 09:00:45;;;;;;;24.60;11.05;;;;;;;8.27;93.87;102397.38;5076542;28;20028;-86
2022/10/12 09:03:36;;;;;;;24.15;10.80;;;;;;;8.30;94.17;102409.56;5077140;28;20046;-86
2022/10/12 09:06:17;;;;;;;21.77;11.93;;;;;;;8.33;94.32;102419.97;5074437;28;20223;-85
2022/10/12 09:09:37;;;;;;;17.50;11.10;;;;;;;8.36;94.43;102420.81;5067865;28;20040;-86
2022/10/12 09:12:26;;;;;;;20.55;10.82;;;;;;;8.39;94.83;102428.66;5012853;28;20324;-86
2022/10/12 09:14:59;;;;;;;29.40;10.50;;;;;;;8.42;94.51;102433.00;5059352;28;20040;-85
2022/10/12 09:17:49;;;;;;;19.27;9.30;;;;;;;8.45;94.51;102444.28;5053779;28;20099;-85
2022/10/12 09:20:30;;;;;;;17.88;8.73;;;;;;;8.47;94.51;102444.28;5070826;28;20033;-86
2022/10/12 09:23:16;;;;;;;19.00;10.15;;;;;;;8.51;94.20;102446.00;5074649;28;20036;-86
2022/10/12 09:25:42;;;;;;;16.67;8.10;;;;;;;8.53;94.02;102449.50;5054484;28;20288;-85
2022/10/12 09:28:36;;;;;;;9.25;6.85;;;;;;;8.57;93.16;102456.41;5075872;28;20356;-85
2022/10/12 09:31:43;;;;;;;16.58;7.53;;;;;;;8.59;92.37;102448.59;5078161;28;20040;-86
2022/10/12 09:34:09;;;;;;;20.35;8.75;;;;;;;8.64;92.66;102446.78;5073355;28;20036;-86
2022/10/12 09:36:37;;;;;;;20.52;9.32;;;;;;;8.67;92.55;102445.91;5044101;28;20355;-86
2022/10/12 09:39:24;;;;;;;22.85;9.15;;;;;;;8.69;92.65;102452.84;5074451;28;20197;-86
2022/10/12 09:41:50;;;;;;;18.50;9.55;;;;;;;8.73;92.97;102438.00;5052177;28;20044;-85
2022/10/12 09:44:27;;;;;;;14.13;8.93;;;;;;;8.76;93.07;102431.03;5069250;28;20229;-86
2022/10/12 09:47:32;;;;;;;18.42;8.80;;;;;;;8.81;93.03;102425.78;5075739;28;20032;-86
2022/10/12 09:49:59;;;;;;;22.88;8.10;;;;;;;8.85;92.91;102427.47;5039354;28;20052;-86
2022/10/12 09:52:34;;;;;;;18.58;8.10;;;;;;;8.89;92.95;102425.72;5072018;28;20037;-85
2022/10/12 09:55:02;;;;;;;18.02;7.97;;;;;;;8.92;92.90;102421.31;5068183;28;20051;-86
2022/10/12 09:57:38;;;;;;;26.40;9.37;;;;;;;8.96;92.57;102411.72;5072872;28;20089;-86
2022/10/12 10:00:21;;;;;;;14.70;7.75;;;;;;;9.00;92.74;102398.63;5073082;28;20320;-86
2022/10/12 10:02:49;;;;;;;18.77;7.97;;;;;;;9.06;92.45;102402.91;5042902;28;20028;-85
2022/10/12 10:05:32;;;;;;;16.65;7.63;;;;;;;9.10;92.18;102396.78;5070497;28;20024;-86
2022/10/12 10:08:13;;;;;;;24.45;7.90;;;;;;;9.17;92.37;102395.84;5067966;28;20040;-86
2022/10/12 10:10:48;;;;;;;15.02;7.20;;;;;;;9.22;91.39;102370.53;5054883;28;20074;-85
2022/10/12 10:13:14;;;;;;;13.65;6.57;;;;;;;9.28;91.56;102371.31;5071665;28;20090;-86
2022/10/12 10:15:44;;;;;;;23.88;7.28;;;;;;;9.34;91.74;102366.03;5057669;28;20044;-86
2022/10/12 10:18:33;;;;;;;15.15;7.55;;;;;;;9.41;91.69;102350.25;5068120;28;20099;-86
2022/10/12 10:20:59;;;;;;;;;;;;;;;9.45;91.24;102348.47;5064202;28;20353;-86
2022/10/12 10:23:27;;;;;;;13.43;7.10;;;;;;;9.52;90.87;102346.66;5072571;28;19983;-86
2022/10/12 10:25:57;;;;;;;20.58;7.25;;;;;;;9.55;91.28;102334.41;5083112;28;20459;-86
2022/10/12 10:28:27;;;;;;;15.52;6.78;;;;;;;9.63;91.46;102338.69;5097155;28;20056;-86
2022/10/12 10:31:24;;;;;;;18.55;6.78;;;;;;;9.66;91.24;102331.66;5096459;28;20081;-86
2022/10/12 10:34:08;;;;;;;13.57;5.97;;;;;;;9.70;90.64;102335.97;5072772;28;20036;-85
2022/10/12 10:36:39;;;;;;;16.23;6.43;;;;;;;9.73;89.17;102338.53;5078493;28;20236;-86
2022/10/12 10:39:15;;;;;;;18.65;6.75;;;;;;;9.77;89.19;102331.53;5095307;28;20042;-86
2022/10/12 10:41:42;;;;;;;14.38;5.85;;;;;;;9.79;88.66;102324.50;5096843;28;20043;-86
2022/10/12 10:44:27;;;;;;;13.88;6.22;;;;;;;9.83;88.83;102318.34;5091329;28;20037;-86
2022/10/12 10:46:55;;;;;;;11.77;6.10;;;;;;;9.86;88.25;102322.66;5090279;28;20032;-86
2022/10/12 10:49:40;;;;;;;14.32;7.53;;;;;;;9.88;88.12;102334.00;5071619;28;20101;-86
2022/10/12 10:52:39;;;;;;;15.90;7.07;;;;;;;9.92;88.50;102330.44;5092486;28;20399;-85
2022/10/12 10:55:16;;;;;;;14.32;6.72;;;;;;;9.95;88.58;102331.25;5096930;28;20033;-85
2022/10/12 10:57:49;;;;;;;15.75;7.53;;;;;;;10.00;88.83;102331.19;5091101;28;20079;-85
2022/10/12 11:00:18;;;;;;;20.85;7.88;;;;;;;10.05;88.76;102333.75;5087302;28;20032;-86
2022/10/12 11:02:52;;;;;;;18.92;8.55;;;;;;;10.09;89.40;102325.81;5077161;28;20483;-86
2022/10/12 11:05:27;;;;;;;23.05;9.30;;;;;;;10.13;88.75;102318.78;5077636;28;20062;-86
2022/10/12 11:07:54;;;;;;;15.85;8.23;;;;;;;10.19;88.98;102316.06;5077830;28;20331;-86
2022/10/12 11:10:39;;;;;;;19.40;10.02;;;;;;;10.24;89.48;102313.38;5087144;28;20040;-86
2022/10/12 11:13:12;;;;;;;16.75;8.88;;;;;;;10.29;89.58;102311.56;5083548;28;20041;-86
2022/10/12 11:15:47;;;;;;;21.52;10.00;;;;;;;10.32;89.63;102309.78;5102696;28;20104;-86
2022/10/12 11:18:48;;;;;;;21.85;10.35;;;;;;;10.36;89.71;102316.69;5108350;28;20050;-85
2022/10/12 11:21:21;;;;;;;20.70;9.90;;;;;;;10.42;89.48;102313.09;5077984;28;20104;-86
2022/10/12 11:23:59;;;;;;;17.08;9.68;;;;;;;10.45;88.94;102313.06;5078786;28;20456;-86
2022/10/12 11:26:40;;;;;;;25.45;10.48;;;;;;;10.49;88.87;102317.34;5053156;28;20160;-86
2022/10/12 11:29:12;;;;;;;22.35;9.57;;;;;;;10.52;88.48;102314.69;5048496;28;20029;-86
2022/10/12 11:31:44;;;;;;;19.45;9.93;;;;;;;10.55;88.17;102312.03;5072338;28;20234;-85
2022/10/12 11:34:16;;;;;;;17.08;9.60;;;;;;;10.59;87.44;102307.59;5075645;28;20024;-86
2022/10/12 11:36:45;;;;;;;25.38;10.63;;;;;;;10.63;87.66;102311.03;5074125;28;20087;-85
2022/10/12 11:39:29;;;;;;;;;;;;;;;10.64;86.69;102300.53;5074379;28;20462;-85
2022/10/12 11:41:56;;;;;;;20.98;9.88;;;;;;;10.68;86.20;102296.97;5058695;28;19916;-85
2022/10/12 11:44:43;;;;;;;25.50;10.20;;;;;;;10.73;86.08;102294.22;5058052;28;20017;-86
2022/10/12 11:47:29;;;;;;;16.67;9.13;;;;;;;10.77;86.84;102290.69;5073301;28;20037;-86